sensor_id;sensor_type;location;lat;lon;timestamp;pressure;altitude;pressure_sealevel;temperature;humidity
11017;BME280;54687;50.800;6.772;2023-02-03T00:00:11;61155.81;;;-144.06;61.68
11017;BME280;54687;50.800;6.772;2023-02-03T00:02:38;61166.28;;;-144.06;61.48
11017;BME280;54687;50.800;6.772;2023-02-03T00:05:05;61139.03;;;-144.06;61.48
11017;BME280;54687;50.800;6.772;2023-02-03T00:07:32;61197.72;;;-144.06;61.75
11017;BME280;54687;50.800;6.772;2023-02-03T00:10:00;61189.34;;;-144.06;61.63
11017;BME280;54687;50.800;6.772;2023-02-03T00:12:28;61164.19;;;-144.06;61.64
11017;BME280;54687;50.800;6.772;2023-02-03T00:14:54;61160.00;;;-144.06;61.34
11017;BME280;54687;50.800;6.772;2023-02-03T00:17:22;61149.50;;;-144.06;61.45
11017;BME280;54687;50.800;6.772;2023-02-03T00:19:49;61101.28;;;-144.06;61.33
11017;BME280;54687;50.800;6.772;2023-02-03T00:22:15;61143.22;;;-144.06;61.39
11017;BME280;54687;50.800;6.772;2023-02-03T00:24:42;61139.03;;;-144.06;61.44
11017;BME280;54687;50.800;6.772;2023-02-03T00:27:08;61130.66;;;-144.06;61.20
11017;BME280;54687;50.800;6.772;2023-02-03T00:29:35;61155.81;;;-144.06;61.24
11017;BME280;54687;50.800;6.772;2023-02-03T00:32:02;61147.41;;;-144.06;61.44
11017;BME280;54687;50.800;6.772;2023-02-03T00:34:30;61155.81;;;-144.06;61.19
11017;BME280;54687;50.800;6.772;2023-02-03T00:36:57;61160.00;;;-144.06;61.19
11017;BME280;54687;50.800;6.772;2023-02-03T00:39:23;61160.00;;;-144.06;61.06
11017;BME280;54687;50.800;6.772;2023-02-03T00:41:50;61149.50;;;-144.06;60.92
11017;BME280;54687;50.800;6.772;2023-02-03T00:44:16;61168.38;;;-144.06;61.04
11017;BME280;54687;50.800;6.772;2023-02-03T00:46:43;61172.56;;;-144.06;61.00
11017;BME280;54687;50.800;6.772;2023-02-03T00:49:10;61170.47;;;-144.06;61.21
11017;BME280;54687;50.800;6.772;2023-02-03T00:51:38;61130.66;;;-144.06;60.98
11017;BME280;54687;50.800;6.772;2023-02-03T00:54:04;61155.81;;;-144.06;60.91
11017;BME280;54687;50.800;6.772;2023-02-03T00:56:31;61160.00;;;-144.06;60.96
11017;BME280;54687;50.800;6.772;2023-02-03T00:58:57;61134.84;;;-144.06;60.77
11017;BME280;54687;50.800;6.772;2023-02-03T01:01:24;61113.88;;;-144.06;60.69
11017;BME280;54687;50.800;6.772;2023-02-03T01:03:53;61162.09;;;-144.06;60.61
11017;BME280;54687;50.800;6.772;2023-02-03T01:06:20;61160.00;;;-144.06;60.53
11017;BME280;54687;50.800;6.772;2023-02-03T01:08:48;61164.19;;;-144.06;60.61
11017;BME280;54687;50.800;6.772;2023-02-03T01:11:19;61172.56;;;-144.06;60.42
11017;BME280;54687;50.800;6.772;2023-02-03T01:13:46;61136.94;;;-144.06;60.71
11017;BME280;54687;50.800;6.772;2023-02-03T01:16:14;61172.56;;;-144.06;60.65
11017;BME280;54687;50.800;6.772;2023-02-03T01:18:41;61151.59;;;-144.06;60.43
11017;BME280;54687;50.800;6.772;2023-02-03T01:21:10;61172.56;;;-144.06;60.59
11017;BME280;54687;50.800;6.772;2023-02-03T01:23:37;61134.84;;;-144.06;60.64
11017;BME280;54687;50.800;6.772;2023-02-03T01:26:08;61155.81;;;-144.06;60.61
11017;BME280;54687;50.800;6.772;2023-02-03T01:28:35;61164.19;;;-144.06;60.56
11017;BME280;54687;50.800;6.772;2023-02-03T01:31:10;61111.78;;;-144.06;60.72
11017;BME280;54687;50.800;6.772;2023-02-03T01:33:37;61157.91;;;-144.06;60.68
11017;BME280;54687;50.800;6.772;2023-02-03T01:36:05;61141.13;;;-144.06;60.38
11017;BME280;54687;50.800;6.772;2023-02-03T01:38:32;61176.75;;;-144.06;60.45
11017;BME280;54687;50.800;6.772;2023-02-03T01:40:59;61170.47;;;-144.06;60.33
11017;BME280;54687;50.800;6.772;2023-02-03T01:43:32;61143.22;;;-144.06;60.60
11017;BME280;54687;50.800;6.772;2023-02-03T01:46:02;61160.00;;;-144.06;60.52
11017;BME280;54687;50.800;6.772;2023-02-03T01:48:32;61191.44;;;-144.06;60.38
11017;BME280;54687;50.800;6.772;2023-02-03T01:51:01;61139.03;;;-144.06;60.50
11017;BME280;54687;50.800;6.772;2023-02-03T01:53:30;61189.34;;;-144.06;60.46
11017;BME280;54687;50.800;6.772;2023-02-03T01:55:58;61168.38;;;-144.06;60.37
11017;BME280;54687;50.800;6.772;2023-02-03T01:58:28;61147.41;;;-144.06;60.26
11017;BME280;54687;50.800;6.772;2023-02-03T02:00:58;61168.38;;;-144.06;60.23
11017;BME280;54687;50.800;6.772;2023-02-03T02:03:27;61128.53;;;-144.06;59.72
11017;BME280;54687;50.800;6.772;2023-02-03T02:06:00;61157.91;;;-144.06;59.72
11017;BME280;54687;50.800;6.772;2023-02-03T02:08:28;61180.97;;;-144.06;59.90
11017;BME280;54687;50.800;6.772;2023-02-03T02:10:56;61155.81;;;-144.06;59.88
11017;BME280;54687;50.800;6.772;2023-02-03T02:13:24;61139.03;;;-144.06;59.82
11017;BME280;54687;50.800;6.772;2023-02-03T02:15:56;61157.91;;;-144.06;59.61
11017;BME280;54687;50.800;6.772;2023-02-03T02:18:37;61168.38;;;-144.06;59.87
11017;BME280;54687;50.800;6.772;2023-02-03T02:21:44;61170.47;;;-144.06;60.11
11017;BME280;54687;50.800;6.772;2023-02-03T02:24:33;61128.53;;;-144.06;59.99
11017;BME280;54687;50.800;6.772;2023-02-03T02:27:16;61162.09;;;-144.06;59.82
11017;BME280;54687;50.800;6.772;2023-02-03T02:30:17;61164.19;;;-144.06;59.77
11017;BME280;54687;50.800;6.772;2023-02-03T02:33:01;61139.03;;;-144.06;59.66
11017;BME280;54687;50.800;6.772;2023-02-03T02:35:43;61132.75;;;-144.06;59.37
11017;BME280;54687;50.800;6.772;2023-02-03T02:38:19;61172.56;;;-144.06;59.33
11017;BME280;54687;50.800;6.772;2023-02-03T02:40:53;61164.19;;;-144.06;59.16
11017;BME280;54687;50.800;6.772;2023-02-03T02:43:26;61134.84;;;-144.06;59.29
11017;BME280;54687;50.800;6.772;2023-02-03T02:45:58;61176.75;;;-144.06;58.98
11017;BME280;54687;50.800;6.772;2023-02-03T02:48:31;61097.09;;;-144.06;59.08
11017;BME280;54687;50.800;6.772;2023-02-03T02:51:01;61115.97;;;-144.06;58.79
11017;BME280;54687;50.800;6.772;2023-02-03T02:53:34;61187.25;;;-144.06;58.81
11017;BME280;54687;50.800;6.772;2023-02-03T02:56:06;61155.81;;;-144.06;58.90
11017;BME280;54687;50.800;6.772;2023-02-03T02:58:34;61134.84;;;-144.06;58.79
11017;BME280;54687;50.800;6.772;2023-02-03T03:01:01;61176.75;;;-144.06;59.01
11017;BME280;54687;50.800;6.772;2023-02-03T03:03:30;61166.28;;;-144.06;59.06
11017;BME280;54687;50.800;6.772;2023-02-03T03:06:00;61143.22;;;-144.06;59.22
11017;BME280;54687;50.800;6.772;2023-02-03T03:08:31;61147.41;;;-144.06;59.13
11017;BME280;54687;50.800;6.772;2023-02-03T03:11:00;61153.69;;;-144.06;59.27
11017;BME280;54687;50.800;6.772;2023-02-03T03:13:31;61147.41;;;-144.06;59.48
11017;BME280;54687;50.800;6.772;2023-02-03T03:16:00;61160.00;;;-144.06;59.47
11017;BME280;54687;50.800;6.772;2023-02-03T03:18:33;61160.00;;;-144.06;59.31
11017;BME280;54687;50.800;6.772;2023-02-03T03:21:02;61139.03;;;-144.06;59.47
11017;BME280;54687;50.800;6.772;2023-02-03T03:23:32;61134.84;;;-144.06;59.77
11017;BME280;54687;50.800;6.772;2023-02-03T03:26:09;61147.41;;;-144.06;59.56
11017;BME280;54687;50.800;6.772;2023-02-03T03:28:42;61151.59;;;-144.06;59.25
11017;BME280;54687;50.800;6.772;2023-02-03T03:31:12;61151.59;;;-144.06;59.29
11017;BME280;54687;50.800;6.772;2023-02-03T03:33:40;61151.59;;;-144.06;59.42
11017;BME280;54687;50.800;6.772;2023-02-03T03:36:13;61149.50;;;-144.06;59.52
11017;BME280;54687;50.800;6.772;2023-02-03T03:38:48;61111.78;;;-144.06;59.81
11017;BME280;54687;50.800;6.772;2023-02-03T03:41:24;61134.84;;;-144.06;59.72
11017;BME280;54687;50.800;6.772;2023-02-03T03:43:55;61124.34;;;-144.06;59.54
11017;BME280;54687;50.800;6.772;2023-02-03T03:46:26;61168.38;;;-144.06;59.86
11017;BME280;54687;50.800;6.772;2023-02-03T03:48:57;61155.81;;;-144.06;59.69
11017;BME280;54687;50.800;6.772;2023-02-03T03:51:29;61126.44;;;-144.06;59.50
11017;BME280;54687;50.800;6.772;2023-02-03T03:54:00;61160.00;;;-144.06;59.47
11017;BME280;54687;50.800;6.772;2023-02-03T03:56:32;61191.44;;;-144.06;59.63
11017;BME280;54687;50.800;6.772;2023-02-03T03:59:02;61155.81;;;-144.06;59.35
11017;BME280;54687;50.800;6.772;2023-02-03T04:01:30;61147.41;;;-144.06;59.40
11017;BME280;54687;50.800;6.772;2023-02-03T04:04:02;61147.41;;;-144.06;59.22
11017;BME280;54687;50.800;6.772;2023-02-03T04:06:32;61168.38;;;-144.06;59.18
11017;BME280;54687;50.800;6.772;2023-02-03T04:08:58;61136.94;;;-144.06;59.33
11017;BME280;54687;50.800;6.772;2023-02-03T04:11:26;61168.38;;;-144.06;59.42
11017;BME280;54687;50.800;6.772;2023-02-03T04:14:10;61164.19;;;-144.06;59.18
11017;BME280;54687;50.800;6.772;2023-02-03T04:16:37;61191.44;;;-144.06;59.26
11017;BME280;54687;50.800;6.772;2023-02-03T04:19:05;61132.75;;;-144.06;59.08
11017;BME280;54687;50.800;6.772;2023-02-03T04:21:32;61134.84;;;-144.06;58.98
11017;BME280;54687;50.800;6.772;2023-02-03T04:23:58;61147.41;;;-144.06;58.90
11017;BME280;54687;50.800;6.772;2023-02-03T04:26:25;61172.56;;;-144.06;58.66
11017;BME280;54687;50.800;6.772;2023-02-03T04:28:51;61160.00;;;-144.06;58.73
11017;BME280;54687;50.800;6.772;2023-02-03T04:31:18;61101.28;;;-144.06;58.37
11017;BME280;54687;50.800;6.772;2023-02-03T04:33:44;61130.66;;;-144.06;58.62
11017;BME280;54687;50.800;6.772;2023-02-03T04:36:12;61101.28;;;-144.06;58.70
11017;BME280;54687;50.800;6.772;2023-02-03T04:38:40;61151.59;;;-144.06;58.74
11017;BME280;54687;50.800;6.772;2023-02-03T04:41:07;61130.66;;;-144.06;58.79
11017;BME280;54687;50.800;6.772;2023-02-03T04:43:33;61132.75;;;-144.06;58.69
11017;BME280;54687;50.800;6.772;2023-02-03T04:46:00;61097.09;;;-144.06;58.82
11017;BME280;54687;50.800;6.772;2023-02-03T04:48:27;61139.03;;;-144.06;58.92
11017;BME280;54687;50.800;6.772;2023-02-03T04:50:53;61155.81;;;-144.06;58.72
11017;BME280;54687;50.800;6.772;2023-02-03T04:53:21;61172.56;;;-144.06;58.69
11017;BME280;54687;50.800;6.772;2023-02-03T04:55:48;61147.41;;;-144.06;58.64
11017;BME280;54687;50.800;6.772;2023-02-03T04:58:14;61172.56;;;-144.06;58.54
11017;BME280;54687;50.800;6.772;2023-02-03T05:00:41;61172.56;;;-144.06;58.79
11017;BME280;54687;50.800;6.772;2023-02-03T05:03:08;61147.41;;;-144.06;58.93
11017;BME280;54687;50.800;6.772;2023-02-03T05:05:34;61145.31;;;-144.06;58.64
11017;BME280;54687;50.800;6.772;2023-02-03T05:08:01;61139.03;;;-144.06;58.97
11017;BME280;54687;50.800;6.772;2023-02-03T05:10:29;61132.75;;;-144.06;58.79
11017;BME280;54687;50.800;6.772;2023-02-03T05:12:55;61130.66;;;-144.06;58.83
11017;BME280;54687;50.800;6.772;2023-02-03T05:15:22;61160.00;;;-144.06;58.69
11017;BME280;54687;50.800;6.772;2023-02-03T05:17:50;61172.56;;;-144.06;58.96
11017;BME280;54687;50.800;6.772;2023-02-03T05:20:17;61185.16;;;-144.06;58.96
11017;BME280;54687;50.800;6.772;2023-02-03T05:22:44;61155.81;;;-144.06;58.94
11017;BME280;54687;50.800;6.772;2023-02-03T05:25:10;61130.66;;;-144.06;58.94
11017;BME280;54687;50.800;6.772;2023-02-03T05:27:39;61130.66;;;-144.06;58.80
11017;BME280;54687;50.800;6.772;2023-02-03T05:30:08;61206.09;;;-144.06;58.74
11017;BME280;54687;50.800;6.772;2023-02-03T05:32:34;61141.13;;;-144.06;58.65
11017;BME280;54687;50.800;6.772;2023-02-03T05:35:01;61151.59;;;-144.06;58.88
11017;BME280;54687;50.800;6.772;2023-02-03T05:37:27;61143.22;;;-144.06;58.54
11017;BME280;54687;50.800;6.772;2023-02-03T05:39:54;61132.75;;;-144.06;58.63
11017;BME280;54687;50.800;6.772;2023-02-03T05:42:46;61143.22;;;-144.06;58.75
11017;BME280;54687;50.800;6.772;2023-02-03T05:45:12;61132.75;;;-144.06;58.79
11017;BME280;54687;50.800;6.772;2023-02-03T05:47:38;61227.06;;;-144.06;58.73
11017;BME280;54687;50.800;6.772;2023-02-03T05:50:05;61157.91;;;-144.06;58.44
11017;BME280;54687;50.800;6.772;2023-02-03T05:52:32;61143.22;;;-144.06;58.53
11017;BME280;54687;50.800;6.772;2023-02-03T05:54:59;61126.44;;;-144.06;58.72
11017;BME280;54687;50.800;6.772;2023-02-03T05:57:25;61153.69;;;-144.06;58.46
11017;BME280;54687;50.800;6.772;2023-02-03T05:59:53;61143.22;;;-144.06;58.47
11017;BME280;54687;50.800;6.772;2023-02-03T06:02:20;61151.59;;;-144.06;58.57
11017;BME280;54687;50.800;6.772;2023-02-03T06:04:46;61101.28;;;-144.06;58.74
11017;BME280;54687;50.800;6.772;2023-02-03T06:07:13;61174.66;;;-144.06;58.73
11017;BME280;54687;50.800;6.772;2023-02-03T06:09:39;61147.41;;;-144.06;58.70
11017;BME280;54687;50.800;6.772;2023-02-03T06:12:06;61145.31;;;-144.06;58.79
11017;BME280;54687;50.800;6.772;2023-02-03T06:14:32;61160.00;;;-144.06;58.78
11017;BME280;54687;50.800;6.772;2023-02-03T06:17:00;61185.16;;;-144.06;58.54
11017;BME280;54687;50.800;6.772;2023-02-03T06:19:27;61130.66;;;-144.06;58.57
11017;BME280;54687;50.800;6.772;2023-02-03T06:21:53;61143.22;;;-144.06;58.52
11017;BME280;54687;50.800;6.772;2023-02-03T06:24:20;61176.75;;;-144.06;58.60
11017;BME280;54687;50.800;6.772;2023-02-03T06:26:47;61164.19;;;-144.06;58.09
11017;BME280;54687;50.800;6.772;2023-02-03T06:29:13;61130.66;;;-144.06;58.15
11017;BME280;54687;50.800;6.772;2023-02-03T06:31:40;61155.81;;;-144.06;58.21
11017;BME280;54687;50.800;6.772;2023-02-03T06:34:08;61147.41;;;-144.06;58.04
11017;BME280;54687;50.800;6.772;2023-02-03T06:36:34;61187.25;;;-144.06;58.23
11017;BME280;54687;50.800;6.772;2023-02-03T06:39:01;61168.38;;;-144.06;58.37
11017;BME280;54687;50.800;6.772;2023-02-03T06:41:28;61101.28;;;-144.06;58.29
11017;BME280;54687;50.800;6.772;2023-02-03T06:43:55;61160.00;;;-144.06;58.23
11017;BME280;54687;50.800;6.772;2023-02-03T06:46:21;61139.03;;;-144.06;58.48
11017;BME280;54687;50.800;6.772;2023-02-03T06:48:52;61128.53;;;-144.06;58.47
11017;BME280;54687;50.800;6.772;2023-02-03T06:51:20;61147.41;;;-144.06;58.44
11017;BME280;54687;50.800;6.772;2023-02-03T06:53:49;61136.94;;;-144.06;58.37
11017;BME280;54687;50.800;6.772;2023-02-03T06:56:15;61130.66;;;-144.06;58.54
11017;BME280;54687;50.800;6.772;2023-02-03T06:58:42;61164.19;;;-144.06;58.50
11017;BME280;54687;50.800;6.772;2023-02-03T07:01:08;61134.84;;;-144.06;58.10
11017;BME280;54687;50.800;6.772;2023-02-03T07:03:35;61176.75;;;-144.06;58.49
11017;BME280;54687;50.800;6.772;2023-02-03T07:06:02;61147.41;;;-144.06;58.25
11017;BME280;54687;50.800;6.772;2023-02-03T07:08:30;61155.81;;;-144.06;58.37
11017;BME280;54687;50.800;6.772;2023-02-03T07:10:56;61193.53;;;-144.06;58.11
11017;BME280;54687;50.800;6.772;2023-02-03T07:13:23;61185.16;;;-144.06;58.19
11017;BME280;54687;50.800;6.772;2023-02-03T07:15:50;61185.16;;;-144.06;58.30
11017;BME280;54687;50.800;6.772;2023-02-03T07:18:19;61151.59;;;-144.06;58.22
11017;BME280;54687;50.800;6.772;2023-02-03T07:20:48;61130.66;;;-144.06;58.23
11017;BME280;54687;50.800;6.772;2023-02-03T07:23:15;61128.53;;;-144.06;58.25
11017;BME280;54687;50.800;6.772;2023-02-03T07:25:43;61145.31;;;-144.06;58.13
11017;BME280;54687;50.800;6.772;2023-02-03T07:28:10;61130.66;;;-144.06;58.00
11017;BME280;54687;50.800;6.772;2023-02-03T07:30:37;61086.63;;;-144.06;57.96
11017;BME280;54687;50.800;6.772;2023-02-03T07:33:03;61143.22;;;-144.06;57.50
11017;BME280;54687;50.800;6.772;2023-02-03T07:35:30;61151.59;;;-144.06;57.80
11017;BME280;54687;50.800;6.772;2023-02-03T07:37:57;61157.91;;;-144.06;57.80
11017;BME280;54687;50.800;6.772;2023-02-03T07:40:23;61139.03;;;-144.06;57.62
11017;BME280;54687;50.800;6.772;2023-02-03T07:42:51;61164.19;;;-144.06;57.12
11017;BME280;54687;50.800;6.772;2023-02-03T07:45:19;61151.59;;;-144.06;57.04
11017;BME280;54687;50.800;6.772;2023-02-03T07:47:46;61176.75;;;-144.06;56.90
11017;BME280;54687;50.800;6.772;2023-02-03T07:50:12;61155.81;;;-144.06;57.14
11017;BME280;54687;50.800;6.772;2023-02-03T07:52:40;61143.22;;;-144.06;56.67
11017;BME280;54687;50.800;6.772;2023-02-03T07:55:07;61162.09;;;-144.06;56.47
11017;BME280;54687;50.800;6.772;2023-02-03T07:57:34;61145.31;;;-144.06;56.69
11017;BME280;54687;50.800;6.772;2023-02-03T08:00:04;61126.44;;;-144.06;56.53
11017;BME280;54687;50.800;6.772;2023-02-03T08:02:30;61147.41;;;-144.06;56.61
11017;BME280;54687;50.800;6.772;2023-02-03T08:04:57;61126.44;;;-144.06;56.58
11017;BME280;54687;50.800;6.772;2023-02-03T08:07:23;61111.78;;;-144.06;56.31
11017;BME280;54687;50.800;6.772;2023-02-03T08:09:50;61160.00;;;-144.06;56.44
11017;BME280;54687;50.800;6.772;2023-02-03T08:12:16;61147.41;;;-144.06;56.07
11017;BME280;54687;50.800;6.772;2023-02-03T08:14:43;61172.56;;;-144.06;56.35
11017;BME280;54687;50.800;6.772;2023-02-03T08:17:11;61149.50;;;-144.06;55.86
11017;BME280;54687;50.800;6.772;2023-02-03T08:19:38;61134.84;;;-144.06;55.70
11017;BME280;54687;50.800;6.772;2023-02-03T08:22:05;61147.41;;;-144.06;55.86
11017;BME280;54687;50.800;6.772;2023-02-03T08:24:31;61101.28;;;-144.06;55.61
11017;BME280;54687;50.800;6.772;2023-02-03T08:26:59;61147.41;;;-144.06;55.79
11017;BME280;54687;50.800;6.772;2023-02-03T08:29:26;61132.75;;;-144.06;55.87
11017;BME280;54687;50.800;6.772;2023-02-03T08:31:52;61134.84;;;-144.06;55.85
11017;BME280;54687;50.800;6.772;2023-02-03T08:34:20;61105.50;;;-144.06;55.70
11017;BME280;54687;50.800;6.772;2023-02-03T08:36:47;61126.44;;;-144.06;55.75
11017;BME280;54687;50.800;6.772;2023-02-03T08:39:13;61109.69;;;-144.06;55.82
11017;BME280;54687;50.800;6.772;2023-02-03T08:41:40;61124.34;;;-144.06;55.78
11017;BME280;54687;50.800;6.772;2023-02-03T08:44:06;61130.66;;;-144.06;55.67
11017;BME280;54687;50.800;6.772;2023-02-03T08:46:33;61080.34;;;-144.06;55.55
11017;BME280;54687;50.800;6.772;2023-02-03T08:49:00;61124.34;;;-144.06;55.67
11017;BME280;54687;50.800;6.772;2023-02-03T08:51:29;61126.44;;;-144.06;55.51
11017;BME280;54687;50.800;6.772;2023-02-03T08:53:56;61145.31;;;-144.06;55.45
11017;BME280;54687;50.800;6.772;2023-02-03T08:56:23;61164.19;;;-144.06;55.68
11017;BME280;54687;50.800;6.772;2023-02-03T08:58:50;61126.44;;;-144.06;55.68
11017;BME280;54687;50.800;6.772;2023-02-03T09:01:17;61155.81;;;-144.06;55.77
11017;BME280;54687;50.800;6.772;2023-02-03T09:03:43;61145.31;;;-144.06;55.93
11017;BME280;54687;50.800;6.772;2023-02-03T09:06:11;61143.22;;;-144.06;56.08
11017;BME280;54687;50.800;6.772;2023-02-03T09:08:42;61164.19;;;-144.06;56.08
11017;BME280;54687;50.800;6.772;2023-02-03T09:11:12;61136.94;;;-144.06;56.19
11017;BME280;54687;50.800;6.772;2023-02-03T09:13:39;61143.22;;;-144.06;56.43
11017;BME280;54687;50.800;6.772;2023-02-03T09:16:10;61147.41;;;-144.06;56.74
11017;BME280;54687;50.800;6.772;2023-02-03T09:18:37;61139.03;;;-144.06;56.86
11017;BME280;54687;50.800;6.772;2023-02-03T09:21:07;61149.50;;;-144.06;56.96
11017;BME280;54687;50.800;6.772;2023-02-03T09:23:35;61099.19;;;-144.06;56.95
11017;BME280;54687;50.800;6.772;2023-02-03T09:26:05;61084.53;;;-144.06;57.36
11017;BME280;54687;50.800;6.772;2023-02-03T09:28:32;61109.69;;;-144.06;57.45
11017;BME280;54687;50.800;6.772;2023-02-03T09:30:59;61141.13;;;-144.06;57.50
11017;BME280;54687;50.800;6.772;2023-02-03T09:33:26;61168.38;;;-144.06;57.37
11017;BME280;54687;50.800;6.772;2023-02-03T09:35:53;61162.09;;;-144.06;56.97
11017;BME280;54687;50.800;6.772;2023-02-03T09:38:20;61168.38;;;-144.06;56.78
11017;BME280;54687;50.800;6.772;2023-02-03T09:40:51;61162.09;;;-144.06;56.97
11017;BME280;54687;50.800;6.772;2023-02-03T09:43:30;61128.53;;;-144.06;56.81
11017;BME280;54687;50.800;6.772;2023-02-03T09:46:05;61120.16;;;-144.06;56.86
11017;BME280;54687;50.800;6.772;2023-02-03T09:48:37;61160.00;;;-144.06;57.01
11017;BME280;54687;50.800;6.772;2023-02-03T09:51:15;61141.13;;;-144.06;56.92
11017;BME280;54687;50.800;6.772;2023-02-03T09:53:48;61122.25;;;-144.06;57.27
11017;BME280;54687;50.800;6.772;2023-02-03T09:56:24;61143.22;;;-144.06;57.32
11017;BME280;54687;50.800;6.772;2023-02-03T09:58:53;61151.59;;;-144.06;56.99
11017;BME280;54687;50.800;6.772;2023-02-03T10:01:20;61151.59;;;-144.06;57.32
11017;BME280;54687;50.800;6.772;2023-02-03T10:03:54;61130.66;;;-144.06;57.02
11017;BME280;54687;50.800;6.772;2023-02-03T10:06:30;61126.44;;;-144.06;57.24
11017;BME280;54687;50.800;6.772;2023-02-03T10:09:18;61107.59;;;-144.06;57.51
11017;BME280;54687;50.800;6.772;2023-02-03T10:12:18;61109.69;;;-144.06;57.74
11017;BME280;54687;50.800;6.772;2023-02-03T10:15:02;61126.44;;;-144.06;57.78
11017;BME280;54687;50.800;6.772;2023-02-03T10:17:35;61164.19;;;-144.06;58.02
11017;BME280;54687;50.800;6.772;2023-02-03T10:20:05;61157.91;;;-144.06;57.90
11017;BME280;54687;50.800;6.772;2023-02-03T10:22:41;61124.34;;;-144.06;58.37
11017;BME280;54687;50.800;6.772;2023-02-03T10:25:17;61157.91;;;-144.06;58.29
11017;BME280;54687;50.800;6.772;2023-02-03T10:27:50;61143.22;;;-144.06;58.49
11017;BME280;54687;50.800;6.772;2023-02-03T10:30:21;61147.41;;;-144.06;58.67
11017;BME280;54687;50.800;6.772;2023-02-03T10:32:48;61153.69;;;-144.06;58.60
11017;BME280;54687;50.800;6.772;2023-02-03T10:35:17;61141.13;;;-144.06;58.80
11017;BME280;54687;50.800;6.772;2023-02-03T10:37:48;61160.00;;;-144.06;58.85
11017;BME280;54687;50.800;6.772;2023-02-03T10:40:16;61143.22;;;-144.06;58.78
11017;BME280;54687;50.800;6.772;2023-02-03T10:42:43;61059.38;;;-144.06;59.17
11017;BME280;54687;50.800;6.772;2023-02-03T10:45:40;61147.41;;;-144.06;58.87
11017;BME280;54687;50.800;6.772;2023-02-03T10:48:12;61124.34;;;-144.06;59.08
11017;BME280;54687;50.800;6.772;2023-02-03T10:50:43;61103.38;;;-144.06;58.86
11017;BME280;54687;50.800;6.772;2023-02-03T10:53:20;61120.16;;;-144.06;58.67
11017;BME280;54687;50.800;6.772;2023-02-03T10:55:48;61147.41;;;-144.06;59.25
11017;BME280;54687;50.800;6.772;2023-02-03T10:58:18;61084.53;;;-144.06;58.86
11017;BME280;54687;50.800;6.772;2023-02-03T11:00:54;61101.28;;;-144.06;58.99
11017;BME280;54687;50.800;6.772;2023-02-03T11:03:22;61109.69;;;-144.06;58.33
11017;BME280;54687;50.800;6.772;2023-02-03T11:06:06;61122.25;;;-144.06;58.43
11017;BME280;54687;50.800;6.772;2023-02-03T11:08:35;61122.25;;;-144.06;58.10
11017;BME280;54687;50.800;6.772;2023-02-03T11:11:03;61109.69;;;-144.06;57.56
11017;BME280;54687;50.800;6.772;2023-02-03T11:13:29;61162.09;;;-144.06;57.42
11017;BME280;54687;50.800;6.772;2023-02-03T11:15:59;61111.78;;;-144.06;57.45
11017;BME280;54687;50.800;6.772;2023-02-03T11:18:40;61120.16;;;-144.06;57.45
11017;BME280;54687;50.800;6.772;2023-02-03T11:21:13;61164.19;;;-144.06;57.61
11017;BME280;54687;50.800;6.772;2023-02-03T11:23:49;61095.00;;;-144.06;57.71
11017;BME280;54687;50.800;6.772;2023-02-03T11:26:20;61099.19;;;-144.06;58.09
11017;BME280;54687;50.800;6.772;2023-02-03T11:28:49;61126.44;;;-144.06;58.08
11017;BME280;54687;50.800;6.772;2023-02-03T11:31:24;61134.84;;;-144.06;58.13
11017;BME280;54687;50.800;6.772;2023-02-03T11:33:57;61101.28;;;-144.06;57.93
11017;BME280;54687;50.800;6.772;2023-02-03T11:36:26;61139.03;;;-144.06;57.94
11017;BME280;54687;50.800;6.772;2023-02-03T11:39:07;61130.66;;;-144.06;57.79
11017;BME280;54687;50.800;6.772;2023-02-03T11:41:36;61168.38;;;-144.06;57.66
11017;BME280;54687;50.800;6.772;2023-02-03T11:44:09;61120.16;;;-144.06;57.56
11017;BME280;54687;50.800;6.772;2023-02-03T11:46:38;61141.13;;;-144.06;57.71
11017;BME280;54687;50.800;6.772;2023-02-03T11:49:12;61128.53;;;-144.06;57.46
11017;BME280;54687;50.800;6.772;2023-02-03T11:51:46;61107.59;;;-144.06;57.49
11017;BME280;54687;50.800;6.772;2023-02-03T11:54:26;61126.44;;;-144.06;57.43
11017;BME280;54687;50.800;6.772;2023-02-03T11:57:11;61139.03;;;-144.06;57.48
11017;BME280;54687;50.800;6.772;2023-02-03T11:59:54;61155.81;;;-144.06;57.80
11017;BME280;54687;50.800;6.772;2023-02-03T12:05:57;61147.41;;;-144.06;58.70
11017;BME280;54687;50.800;6.772;2023-02-03T12:08:40;61101.28;;;-144.06;58.54
11017;BME280;54687;50.800;6.772;2023-02-03T12:11:18;61090.81;;;-144.06;58.71
11017;BME280;54687;50.800;6.772;2023-02-03T12:14:07;61130.66;;;-144.06;58.89
11017;BME280;54687;50.800;6.772;2023-02-03T12:17:08;61113.88;;;-144.06;58.74
11017;BME280;54687;50.800;6.772;2023-02-03T12:19:47;61153.69;;;-144.06;58.69
11017;BME280;54687;50.800;6.772;2023-02-03T12:22:24;61109.69;;;-144.06;58.52
11017;BME280;54687;50.800;6.772;2023-02-03T12:24:59;61147.41;;;-144.06;58.47
11017;BME280;54687;50.800;6.772;2023-02-03T12:27:35;61111.78;;;-144.06;58.72
11017;BME280;54687;50.800;6.772;2023-02-03T12:30:08;61149.50;;;-144.06;58.67
11017;BME280;54687;50.800;6.772;2023-02-03T12:32:41;61139.03;;;-144.06;58.81
11017;BME280;54687;50.800;6.772;2023-02-03T12:35:14;61105.50;;;-144.06;58.79
11017;BME280;54687;50.800;6.772;2023-02-03T12:37:49;61126.44;;;-144.06;58.75
11017;BME280;54687;50.800;6.772;2023-02-03T12:40:21;61128.53;;;-144.06;58.85
11017;BME280;54687;50.800;6.772;2023-02-03T12:42:53;61147.41;;;-144.06;58.59
11017;BME280;54687;50.800;6.772;2023-02-03T12:45:24;61097.09;;;-144.06;58.80
11017;BME280;54687;50.800;6.772;2023-02-03T12:47:55;61130.66;;;-144.06;58.98
11017;BME280;54687;50.800;6.772;2023-02-03T12:50:28;61126.44;;;-144.06;59.13
11017;BME280;54687;50.800;6.772;2023-02-03T12:53:00;61153.69;;;-144.06;59.14
11017;BME280;54687;50.800;6.772;2023-02-03T12:55:33;61109.69;;;-144.06;59.30
11017;BME280;54687;50.800;6.772;2023-02-03T12:58:04;61095.00;;;-144.06;59.57